createdAt,value
2022-12-03T00:01:34.886Z,8.15
2022-12-03T00:04:37.085Z,8.55
2022-12-03T00:07:39.408Z,8.65
2022-12-03T00:10:41.623Z,8.70
2022-12-03T00:13:45.745Z,8.30
2022-12-03T00:16:47.966Z,7.07
2022-12-03T00:19:50.149Z,7.75
2022-12-03T00:22:52.488Z,7.60
2022-12-03T00:25:54.693Z,8.35
2022-12-03T00:28:57.816Z,8.48
2022-12-03T00:31:59.978Z,8.63
2022-12-03T00:35:02.256Z,8.95
2022-12-03T00:38:04.578Z,7.53
2022-12-03T00:41:06.812Z,9.02
2022-12-03T00:44:09.030Z,8.05
2022-12-03T00:47:11.358Z,7.75
2022-12-03T00:50:13.675Z,7.80
2022-12-03T00:53:15.888Z,7.47
2022-12-03T00:56:18.056Z,8.15
2022-12-03T00:59:20.305Z,7.53
2022-12-03T01:02:22.638Z,7.78
2022-12-03T01:05:24.931Z,8.55
2022-12-03T01:08:27.319Z,8.73
2022-12-03T01:11:38.373Z,8.07
2022-12-03T01:14:40.888Z,7.80
2022-12-03T01:17:43.241Z,8.60
2022-12-03T01:20:45.508Z,7.30
2022-12-03T01:23:49.164Z,7.05
2022-12-03T01:26:51.678Z,7.32
2022-12-03T01:29:53.988Z,6.75
2022-12-03T01:32:56.238Z,7.30
2022-12-03T01:35:58.386Z,7.50
2022-12-03T01:39:02.104Z,6.32
2022-12-03T01:42:06.782Z,6.95
2022-12-03T01:45:22.471Z,7.07
2022-12-03T01:48:24.749Z,5.80
2022-12-03T01:51:27.239Z,6.85
2022-12-03T01:54:37.223Z,7.60
2022-12-03T01:57:49.778Z,7.00
2022-12-03T02:00:52.218Z,6.63
2022-12-03T02:03:54.492Z,7.10
2022-12-03T02:06:56.729Z,6.90
2022-12-03T02:10:00.872Z,6.88
2022-12-03T02:13:08.927Z,7.05
2022-12-03T02:16:11.303Z,6.90
2022-12-03T02:19:26.813Z,6.82
2022-12-03T02:22:32.012Z,6.88
2022-12-03T02:25:35.961Z,7.32
2022-12-03T02:28:38.773Z,6.97
2022-12-03T02:31:42.325Z,7.45
2022-12-03T02:34:46.627Z,7.45
2022-12-03T02:37:52.988Z,6.88
2022-12-03T02:40:59.564Z,6.07
2022-12-03T02:44:02.706Z,7.40
2022-12-03T02:47:05.161Z,7.60
2022-12-03T02:50:08.687Z,7.22
2022-12-03T02:53:17.620Z,7.45
2022-12-03T02:56:23.598Z,6.93
2022-12-03T02:59:25.898Z,6.60
2022-12-03T03:02:28.461Z,7.07
2022-12-03T03:05:32.154Z,6.78
2022-12-03T03:08:35.208Z,7.18
2022-12-03T03:11:37.594Z,7.13
2022-12-03T03:14:39.906Z,6.97
2022-12-03T03:17:43.188Z,6.63
2022-12-03T03:20:45.961Z,6.72
2022-12-03T03:23:48.212Z,6.70
2022-12-03T03:26:51.019Z,7.43
2022-12-03T03:29:53.379Z,6.63
2022-12-03T03:32:55.670Z,7.75
2022-12-03T03:36:00.576Z,7.00
2022-12-03T03:39:05.209Z,7.30
2022-12-03T03:42:07.670Z,6.97
2022-12-03T03:45:10.325Z,5.97
2022-12-03T03:48:13.641Z,7.55
2022-12-03T03:51:17.380Z,6.68
2022-12-03T03:54:19.694Z,6.88
2022-12-03T03:57:22.382Z,7.43
2022-12-03T04:00:25.690Z,7.25
2022-12-03T04:03:29.743Z,6.50
2022-12-03T04:06:31.958Z,6.75
2022-12-03T04:09:34.193Z,7.03
2022-12-03T04:12:55.137Z,6.50
2022-12-03T04:15:57.567Z,6.80
2022-12-03T04:18:59.739Z,6.78
2022-12-03T04:22:20.426Z,6.78
2022-12-03T04:25:41.081Z,7.22
2022-12-03T04:28:49.506Z,6.53
2022-12-03T04:32:10.227Z,7.07
2022-12-03T04:35:31.284Z,5.80
2022-12-03T04:38:33.609Z,6.75
2022-12-03T04:41:35.793Z,6.47
2022-12-03T04:44:38.346Z,7.07
2022-12-03T04:47:40.571Z,6.88
2022-12-03T04:50:43.173Z,7.00
2022-12-03T04:53:46.260Z,6.88
2022-12-03T04:56:48.839Z,7.03
2022-12-03T04:59:51.020Z,7.20
2022-12-03T05:02:53.416Z,6.55
2022-12-03T05:05:55.643Z,6.82
2022-12-03T05:08:57.875Z,6.82
2022-12-03T05:12:00.116Z,6.63
2022-12-03T05:15:02.474Z,7.00
2022-12-03T05:18:04.840Z,6.78
2022-12-03T05:21:06.996Z,6.55
2022-12-03T05:24:09.260Z,6.22
2022-12-03T05:27:11.661Z,6.90
2022-12-03T05:30:14.581Z,6.50
2022-12-03T05:33:17.104Z,6.00
2022-12-03T05:36:20.037Z,6.60
2022-12-03T05:39:22.201Z,5.95
2022-12-03T05:42:42.742Z,5.70
2022-12-03T05:45:45.039Z,5.97
2022-12-03T05:48:47.375Z,5.60
2022-12-03T05:51:52.540Z,5.32
2022-12-03T05:54:59.135Z,5.53
2022-12-03T05:58:01.419Z,5.95
2022-12-03T06:01:03.567Z,4.80
2022-12-03T06:04:05.975Z,5.32
2022-12-03T06:07:13.577Z,5.32
2022-12-03T06:10:19.455Z,4.82
2022-12-03T06:13:21.691Z,5.30
2022-12-03T06:16:23.930Z,4.55
2022-12-03T06:19:26.227Z,5.25
2022-12-03T06:22:28.626Z,5.50
2022-12-03T06:25:30.861Z,4.68
2022-12-03T06:28:33.015Z,4.80
2022-12-03T06:31:35.266Z,4.53
2022-12-03T06:34:37.489Z,4.30
2022-12-03T06:37:39.766Z,4.35
2022-12-03T06:40:41.942Z,3.58
2022-12-03T06:43:44.080Z,4.50
2022-12-03T06:46:46.313Z,4.50
2022-12-03T06:49:48.533Z,3.53
2022-12-03T06:52:50.766Z,4.25
2022-12-03T06:55:52.923Z,5.32
2022-12-03T06:58:55.327Z,4.05
2022-12-03T07:01:57.619Z,3.60
2022-12-03T07:04:59.895Z,4.05
2022-12-03T07:08:02.224Z,3.90
2022-12-03T07:11:04.517Z,4.05
2022-12-03T07:14:08.635Z,3.90
2022-12-03T07:17:11.234Z,3.78
2022-12-03T07:20:13.761Z,3.50
2022-12-03T07:23:15.908Z,3.53
2022-12-03T07:26:18.091Z,3.65
2022-12-03T07:29:20.327Z,3.60
2022-12-03T07:32:22.542Z,3.90
2022-12-03T07:35:24.903Z,3.90
2022-12-03T07:38:27.172Z,4.00
2022-12-03T07:41:29.425Z,3.40
2022-12-03T07:44:32.172Z,3.92
2022-12-03T07:47:34.425Z,3.70
2022-12-03T07:50:36.561Z,3.28
2022-12-03T07:53:38.795Z,3.92
2022-12-03T07:56:41.096Z,3.20
2022-12-03T07:59:43.249Z,3.53
2022-12-03T08:02:45.636Z,3.38
2022-12-03T08:05:47.826Z,3.42
2022-12-03T08:08:50.074Z,3.83
2022-12-03T08:11:52.520Z,3.78
2022-12-03T08:14:54.917Z,3.83
2022-12-03T08:18:01.548Z,3.88
2022-12-03T08:21:10.457Z,3.58
2022-12-03T08:24:19.140Z,3.50
2022-12-03T08:27:21.293Z,3.90
2022-12-03T08:30:23.538Z,3.80
2022-12-03T08:33:33.817Z,3.85
2022-12-03T08:36:36.618Z,3.55
2022-12-03T08:39:46.271Z,3.95
2022-12-03T08:42:48.752Z,3.47
2022-12-03T08:45:53.314Z,3.85
2022-12-03T08:48:55.565Z,4.00
2022-12-03T08:52:01.268Z,3.33
2022-12-03T08:55:31.081Z,3.63
2022-12-03T08:58:33.281Z,3.38
2022-12-03T09:01:41.806Z,3.38
2022-12-03T09:04:46.270Z,3.63
2022-12-03T09:07:48.958Z,4.13
2022-12-03T09:10:51.161Z,4.28
2022-12-03T09:13:53.308Z,4.45
2022-12-03T09:16:56.515Z,4.63
2022-12-03T09:19:58.847Z,3.80
2022-12-03T09:23:01.168Z,3.70
2022-12-03T09:26:03.375Z,3.65
2022-12-03T09:29:11.704Z,4.07
2022-12-03T09:32:20.484Z,4.10
2022-12-03T09:35:23.261Z,3.80
2022-12-03T09:38:26.112Z,4.00
2022-12-03T09:41:28.818Z,3.67
2022-12-03T09:44:33.910Z,3.13
2022-12-03T09:47:36.960Z,3.70
2022-12-03T09:50:42.056Z,3.45
2022-12-03T09:53:44.293Z,3.72
2022-12-03T09:56:46.453Z,3.35
2022-12-03T09:59:48.616Z,3.65
2022-12-03T10:02:52.811Z,3.58
2022-12-03T10:05:55.365Z,3.40
2022-12-03T10:09:00.135Z,2.83
2022-12-03T10:12:02.397Z,4.07
2022-12-03T10:15:05.155Z,3.78
2022-12-03T10:18:20.481Z,3.47
2022-12-03T10:21:28.256Z,3.85
2022-12-03T10:24:33.330Z,3.83
2022-12-03T10:27:35.789Z,3.28
2022-12-03T10:30:38.989Z,3.28
2022-12-03T10:33:44.958Z,3.60
2022-12-03T10:36:47.495Z,3.33
2022-12-03T10:40:08.457Z,3.50
2022-12-03T10:43:19.853Z,3.67
2022-12-03T10:46:23.357Z,2.83
2022-12-03T10:49:26.014Z,3.25
2022-12-03T10:52:28.728Z,3.45
2022-12-03T10:55:37.807Z,3.42
2022-12-03T10:58:40.866Z,3.30
2022-12-03T11:01:43.632Z,3.00
2022-12-03T11:04:46.235Z,3.40
2022-12-03T11:07:49.545Z,3.67
2022-12-03T11:11:00.296Z,3.47
2022-12-03T11:14:04.549Z,3.20
2022-12-03T11:17:08.415Z,3.05
2022-12-03T11:20:42.578Z,3.00
2022-12-03T11:23:45.074Z,3.28
2022-12-03T11:27:02.944Z,3.05
2022-12-03T11:30:10.062Z,3.20
2022-12-03T11:33:29.149Z,3.33
2022-12-03T11:36:54.035Z,3.60
2022-12-03T11:39:58.994Z,3.33
2022-12-03T11:43:01.527Z,3.20
2022-12-03T11:46:09.608Z,3.35
2022-12-03T11:49:35.829Z,3.28
2022-12-03T11:52:44.616Z,2.95
2022-12-03T11:55:53.476Z,3.05
2022-12-03T11:59:01.664Z,2.92
2022-12-03T12:02:20.902Z,3.40
2022-12-03T12:05:33.915Z,3.37
2022-12-03T12:08:40.796Z,3.63
2022-12-03T12:11:43.974Z,3.28
2022-12-03T12:14:46.497Z,3.63
2022-12-03T12:17:49.075Z,3.38
2022-12-03T12:20:51.581Z,3.67
2022-12-03T12:23:54.252Z,3.97
2022-12-03T12:27:03.033Z,3.63
2022-12-03T12:30:14.295Z,4.20
2022-12-03T12:33:23.644Z,3.83
2022-12-03T12:36:25.878Z,4.18
2022-12-03T12:39:28.105Z,4.15
2022-12-03T12:42:30.336Z,3.95
2022-12-03T12:45:35.673Z,3.95
2022-12-03T12:48:39.440Z,4.55
2022-12-03T12:51:45.056Z,4.30
2022-12-03T12:54:47.418Z,4.65
2022-12-03T12:57:49.855Z,4.43
2022-12-03T13:00:55.393Z,5.10
2022-12-03T13:03:58.404Z,4.60
2022-12-03T13:07:00.572Z,4.10
2022-12-03T13:10:37.583Z,4.47
2022-12-03T13:13:44.520Z,4.03
2022-12-03T13:16:52.105Z,4.03
2022-12-03T13:20:06.671Z,4.32
2022-12-03T13:23:28.485Z,3.78
2022-12-03T13:26:39.537Z,3.85
2022-12-03T13:29:42.149Z,4.40
2022-12-03T13:32:44.895Z,4.07
2022-12-03T13:35:47.389Z,4.18
2022-12-03T13:38:49.924Z,4.68
2022-12-03T13:42:11.383Z,4.43
2022-12-03T13:45:16.685Z,4.60
2022-12-03T13:48:29.510Z,4.38
2022-12-03T13:51:33.491Z,4.75
2022-12-03T13:54:39.057Z,4.68
2022-12-03T13:57:41.308Z,4.57
2022-12-03T14:00:43.730Z,4.38
2022-12-03T14:03:48.267Z,4.63
2022-12-03T14:06:50.430Z,4.10
2022-12-03T14:09:52.984Z,4.80
2022-12-03T14:12:56.042Z,4.85
2022-12-03T14:15:58.302Z,4.50
2022-12-03T14:19:00.552Z,4.38
2022-12-03T14:22:02.823Z,5.07
2022-12-03T14:25:06.969Z,4.85
2022-12-03T14:28:09.166Z,5.15
2022-12-03T14:31:11.579Z,4.38
2022-12-03T14:34:15.639Z,4.63
2022-12-03T14:37:18.257Z,5.20
2022-12-03T14:40:21.946Z,4.50
2022-12-03T14:43:24.610Z,4.80
2022-12-03T14:46:26.902Z,4.80
2022-12-03T14:49:29.283Z,4.72
2022-12-03T14:52:31.540Z,4.60
2022-12-03T14:55:33.775Z,4.70
2022-12-03T14:58:36.085Z,5.22
2022-12-03T15:01:38.344Z,5.15
2022-12-03T15:04:41.443Z,4.82
2022-12-03T15:07:43.677Z,5.07
2022-12-03T15:10:45.852Z,5.13
2022-12-03T15:13:48.568Z,5.32
2022-12-03T15:16:51.224Z,5.05
2022-12-03T15:19:53.635Z,4.85
2022-12-03T15:22:55.974Z,4.93
2022-12-03T15:25:58.345Z,5.07
2022-12-03T15:29:00.626Z,5.15
2022-12-03T15:32:03.296Z,5.95
2022-12-03T15:35:05.844Z,5.47
2022-12-03T15:38:08.478Z,4.93
2022-12-03T15:41:23.345Z,5.18
2022-12-03T15:44:25.656Z,5.45
2022-12-03T15:47:27.850Z,5.63
2022-12-03T15:50:30.562Z,5.45
2022-12-03T15:53:37.644Z,4.88
2022-12-03T15:56:39.895Z,5.15
2022-12-03T15:59:43.215Z,5.03
2022-12-03T16:02:52.206Z,5.50
2022-12-03T16:05:55.258Z,5.22
2022-12-03T16:08:57.423Z,4.88
2022-12-03T16:11:59.580Z,5.53
2022-12-03T16:15:01.801Z,5.05
2022-12-03T16:18:04.196Z,5.32
2022-12-03T16:21:06.442Z,4.97
2022-12-03T16:24:08.824Z,5.45
2022-12-03T16:27:11.047Z,5.72
2022-12-03T16:30:13.775Z,5.70
2022-12-03T16:33:15.992Z,5.55
2022-12-03T16:36:18.258Z,5.30
2022-12-03T16:39:20.512Z,5.55
2022-12-03T16:42:24.057Z,5.32
2022-12-03T16:45:29.292Z,5.60
2022-12-03T16:48:31.540Z,5.53
2022-12-03T16:51:34.148Z,5.63
2022-12-03T16:54:36.320Z,5.40
2022-12-03T16:57:38.662Z,5.95
2022-12-03T17:00:40.838Z,5.32
2022-12-03T17:03:43.023Z,5.50
2022-12-03T17:06:45.158Z,5.00
2022-12-03T17:09:47.456Z,5.60
2022-12-03T17:16:11.948Z,5.03
2022-12-03T17:19:14.911Z,5.35
2022-12-03T17:22:17.268Z,5.55
2022-12-03T17:25:19.527Z,5.20
2022-12-03T17:28:21.853Z,5.85
2022-12-03T17:31:24.155Z,5.40
2022-12-03T17:34:26.450Z,4.72
2022-12-03T17:37:28.617Z,4.85
2022-12-03T17:40:30.772Z,4.75
2022-12-03T17:43:33.102Z,5.40
2022-12-03T17:46:35.398Z,4.72
2022-12-03T17:49:37.611Z,5.28
2022-12-03T17:52:39.820Z,4.78
2022-12-03T17:55:45.060Z,4.88
2022-12-03T17:58:47.654Z,4.82
2022-12-03T18:01:49.906Z,4.00
2022-12-03T18:04:52.146Z,4.82
2022-12-03T18:07:54.557Z,5.03
2022-12-03T18:10:56.974Z,4.57
2022-12-03T18:14:01.352Z,4.85
2022-12-03T18:17:03.798Z,4.03
2022-12-03T18:20:06.779Z,4.60
2022-12-03T18:23:09.141Z,4.68
2022-12-03T18:26:11.461Z,5.13
2022-12-03T18:29:13.687Z,4.82
2022-12-03T18:32:28.426Z,4.97
2022-12-03T18:35:31.452Z,4.13
2022-12-03T18:38:34.165Z,4.35
2022-12-03T18:41:36.899Z,5.22
2022-12-03T18:44:39.104Z,4.40
2022-12-03T18:47:41.431Z,4.88
2022-12-03T18:50:45.081Z,4.85
2022-12-03T18:53:48.748Z,5.13
2022-12-03T18:56:50.883Z,5.13
2022-12-03T18:59:53.440Z,5.20
2022-12-03T19:03:04.177Z,5.47
2022-12-03T19:06:14.147Z,4.43
2022-12-03T19:09:19.422Z,4.25
2022-12-03T19:12:21.629Z,4.75
2022-12-03T19:15:24.236Z,3.85
2022-12-03T19:18:26.481Z,4.45
2022-12-03T19:21:33.557Z,4.88
2022-12-03T19:24:36.138Z,4.85
2022-12-03T19:27:38.291Z,4.45
2022-12-03T19:30:40.467Z,4.78
2022-12-03T19:33:43.814Z,4.97
2022-12-03T19:36:47.573Z,4.03
2022-12-03T19:39:53.735Z,5.20
2022-12-03T19:42:56.132Z,4.93
2022-12-03T19:46:05.816Z,5.15
2022-12-03T19:49:08.591Z,5.15
2022-12-03T19:52:10.942Z,5.30
2022-12-03T19:55:13.784Z,5.05
2022-12-03T19:58:16.010Z,5.00
2022-12-03T20:01:21.062Z,5.40
2022-12-03T20:04:23.211Z,5.40
2022-12-03T20:07:25.615Z,5.10
2022-12-03T20:10:27.889Z,5.38
2022-12-03T20:13:34.978Z,4.75
2022-12-03T20:16:38.720Z,5.85
2022-12-03T20:19:40.985Z,5.43
2022-12-03T20:22:43.123Z,5.72
2022-12-03T20:25:45.294Z,5.50
2022-12-03T20:28:48.490Z,4.80
2022-12-03T20:31:50.716Z,4.88
2022-12-03T20:34:52.896Z,5.03
2022-12-03T20:37:55.029Z,5.18
2022-12-03T20:41:04.842Z,4.47
2022-12-03T20:44:08.024Z,4.18
2022-12-03T20:47:10.250Z,4.45
2022-12-03T20:50:12.639Z,4.30
2022-12-03T20:53:24.788Z,4.32
2022-12-03T20:56:34.663Z,4.18
2022-12-03T20:59:36.861Z,3.97
2022-12-03T21:02:39.302Z,4.15
2022-12-03T21:05:42.688Z,3.70
2022-12-03T21:08:45.554Z,3.63
2022-12-03T21:11:47.807Z,3.65
2022-12-03T21:14:49.918Z,4.10
2022-12-03T21:17:52.426Z,3.38
2022-12-03T21:20:54.572Z,3.50
2022-12-03T21:23:57.592Z,3.33
2022-12-03T21:26:59.751Z,3.28
2022-12-03T21:30:01.853Z,3.58
2022-12-03T21:33:06.070Z,3.60
2022-12-03T21:36:09.291Z,3.00
2022-12-03T21:39:11.609Z,3.00
2022-12-03T21:42:25.940Z,3.13
2022-12-03T21:45:39.245Z,2.95
2022-12-03T21:48:41.427Z,3.05
2022-12-03T21:51:43.881Z,3.20
2022-12-03T21:54:46.103Z,2.97
2022-12-03T21:57:48.443Z,3.28
2022-12-03T22:00:51.282Z,2.90
2022-12-03T22:03:53.492Z,2.97
2022-12-03T22:06:55.714Z,2.72
2022-12-03T22:09:57.972Z,3.47
2022-12-03T22:13:00.393Z,3.13
2022-12-03T22:16:06.146Z,2.65
2022-12-03T22:19:08.409Z,2.67
2022-12-03T22:22:10.685Z,2.53
2022-12-03T22:25:12.895Z,2.75
2022-12-03T22:28:15.114Z,2.75
2022-12-03T22:31:18.383Z,2.80
2022-12-03T22:34:20.616Z,2.70
2022-12-03T22:37:22.813Z,2.80
2022-12-03T22:40:25.035Z,2.50
2022-12-03T22:43:27.267Z,2.63
2022-12-03T22:46:29.464Z,2.63
2022-12-03T22:49:31.760Z,2.22
2022-12-03T22:52:34.348Z,2.22
2022-12-03T22:55:36.744Z,2.50
2022-12-03T22:58:40.582Z,2.72
2022-12-03T23:01:42.867Z,2.10
2022-12-03T23:04:45.038Z,2.50
2022-12-03T23:07:47.295Z,2.70
2022-12-03T23:10:51.770Z,2.05
2022-12-03T23:13:54.238Z,1.95
2022-12-03T23:16:56.438Z,2.50
2022-12-03T23:19:58.598Z,2.67
2022-12-03T23:23:00.783Z,2.38
2022-12-03T23:26:10.961Z,2.53
2022-12-03T23:32:16.165Z,2.70
2022-12-03T23:35:18.524Z,2.60
2022-12-03T23:38:20.953Z,2.30
2022-12-03T23:41:24.087Z,2.40
2022-12-03T23:44:27.926Z,2.70
2022-12-03T23:47:30.157Z,2.08
2022-12-03T23:50:33.444Z,2.70
2022-12-03T23:53:36.824Z,2.55
2022-12-03T23:56:39.682Z,2.47
2022-12-03T23:59:42.328Z,2.78
